Des Moines, Iowa
Current Conditions -  °F | °C
As of 10:54 PM on Wednesday 22 Oct 2014 (Local Time) from KDSM Reporting Station
Broken Clouds Broken Clouds  
Wind Chill: 14°   Ceiling: 9500
Heat Index: 14°   Visibility: 10mi
Dew Point:   Wind: 12mph
Humidity: 62%   Direction: 150°SSE
Pressure: 30.11"   Gusts: NA
Location:  41.59°N, 93.61°W
Report Text: KDSM 230354Z 15010KT 10SM SCT065 BKN095 14/07 A3011 RMK AO2 SLP195 T01390067
Loading
Personal Weather Stations






























Interactive Weather Map
Tropical Storm Tracking
New forecast layout! Learn more

10-Day Weather Forecast

Advertisements
Track Severe Weather on mobile